sensor_id;sensor_type;location;lat;lon;timestamp;P1;durP1;ratioP1;P2;durP2;ratioP2
77955;SDS011;67152;36.266;32.294;2023-06-26T00:01:52;16.70;;;5.60;;
77955;SDS011;67152;36.266;32.294;2023-06-26T00:04:19;15.75;;;5.85;;
77955;SDS011;67152;36.266;32.294;2023-06-26T00:06:46;13.90;;;5.73;;
77955;SDS011;67152;36.266;32.294;2023-06-26T00:09:12;6.33;;;4.87;;
77955;SDS011;67152;36.266;32.294;2023-06-26T00:11:38;18.05;;;5.90;;
77955;SDS011;67152;36.266;32.294;2023-06-26T00:14:05;18.63;;;5.13;;
77955;SDS011;67152;36.266;32.294;2023-06-26T00:16:32;14.20;;;4.95;;
77955;SDS011;67152;36.266;32.294;2023-06-26T00:18:58;11.00;;;4.97;;
77955;SDS011;67152;36.266;32.294;2023-06-26T00:21:25;12.02;;;4.32;;
77955;SDS011;67152;36.266;32.294;2023-06-26T00:23:53;10.80;;;5.03;;
77955;SDS011;67152;36.266;32.294;2023-06-26T00:26:19;8.25;;;4.75;;
77955;SDS011;67152;36.266;32.294;2023-06-26T00:28:46;8.80;;;4.97;;
77955;SDS011;67152;36.266;32.294;2023-06-26T00:31:12;9.45;;;5.43;;
77955;SDS011;67152;36.266;32.294;2023-06-26T00:33:39;10.65;;;4.72;;
77955;SDS011;67152;36.266;32.294;2023-06-26T00:36:05;6.87;;;4.33;;
77955;SDS011;67152;36.266;32.294;2023-06-26T00:38:32;8.30;;;4.83;;
77955;SDS011;67152;36.266;32.294;2023-06-26T00:40:58;11.50;;;4.70;;
77955;SDS011;67152;36.266;32.294;2023-06-26T00:43:25;12.23;;;5.27;;
77955;SDS011;67152;36.266;32.294;2023-06-26T00:45:51;10.43;;;4.73;;
77955;SDS011;67152;36.266;32.294;2023-06-26T00:48:18;9.60;;;4.90;;
77955;SDS011;67152;36.266;32.294;2023-06-26T00:50:45;12.48;;;5.13;;
77955;SDS011;67152;36.266;32.294;2023-06-26T00:53:11;8.18;;;5.45;;
77955;SDS011;67152;36.266;32.294;2023-06-26T00:55:38;10.02;;;5.50;;
77955;SDS011;67152;36.266;32.294;2023-06-26T00:58:04;8.93;;;4.65;;
77955;SDS011;67152;36.266;32.294;2023-06-26T01:00:31;11.52;;;5.40;;
77955;SDS011;67152;36.266;32.294;2023-06-26T01:02:58;7.80;;;4.75;;
77955;SDS011;67152;36.266;32.294;2023-06-26T01:05:25;7.97;;;4.35;;
77955;SDS011;67152;36.266;32.294;2023-06-26T01:07:53;10.20;;;4.97;;
77955;SDS011;67152;36.266;32.294;2023-06-26T01:10:20;16.30;;;5.30;;
77955;SDS011;67152;36.266;32.294;2023-06-26T01:12:47;18.48;;;4.97;;
77955;SDS011;67152;36.266;32.294;2023-06-26T01:15:13;8.00;;;4.33;;
77955;SDS011;67152;36.266;32.294;2023-06-26T01:17:40;6.70;;;4.25;;
77955;SDS011;67152;36.266;32.294;2023-06-26T01:20:10;9.75;;;4.72;;
77955;SDS011;67152;36.266;32.294;2023-06-26T01:28:07;13.18;;;4.43;;
77955;SDS011;67152;36.266;32.294;2023-06-26T01:30:35;7.60;;;4.22;;
77955;SDS011;67152;36.266;32.294;2023-06-26T01:33:05;11.75;;;4.00;;
77955;SDS011;67152;36.266;32.294;2023-06-26T01:35:31;7.22;;;4.50;;
77955;SDS011;67152;36.266;32.294;2023-06-26T01:38:14;11.27;;;3.83;;
77955;SDS011;67152;36.266;32.294;2023-06-26T01:40:42;11.23;;;3.90;;
77955;SDS011;67152;36.266;32.294;2023-06-26T01:43:15;8.85;;;4.28;;
77955;SDS011;67152;36.266;32.294;2023-06-26T01:46:04;10.63;;;4.40;;
77955;SDS011;67152;36.266;32.294;2023-06-26T01:48:38;9.77;;;4.25;;
77955;SDS011;67152;36.266;32.294;2023-06-26T01:51:10;12.50;;;4.20;;
77955;SDS011;67152;36.266;32.294;2023-06-26T01:53:40;10.40;;;4.57;;
77955;SDS011;67152;36.266;32.294;2023-06-26T01:56:15;8.57;;;4.15;;
77955;SDS011;67152;36.266;32.294;2023-06-26T01:58:43;9.63;;;4.88;;
77955;SDS011;67152;36.266;32.294;2023-06-26T02:01:10;8.50;;;3.65;;
77955;SDS011;67152;36.266;32.294;2023-06-26T02:03:37;9.27;;;4.72;;
77955;SDS011;67152;36.266;32.294;2023-06-26T02:06:04;9.70;;;4.37;;
77955;SDS011;67152;36.266;32.294;2023-06-26T02:08:30;9.13;;;3.80;;
77955;SDS011;67152;36.266;32.294;2023-06-26T02:10:57;4.67;;;3.57;;
77955;SDS011;67152;36.266;32.294;2023-06-26T02:13:23;7.70;;;4.10;;
77955;SDS011;67152;36.266;32.294;2023-06-26T02:15:50;5.37;;;3.77;;
77955;SDS011;67152;36.266;32.294;2023-06-26T02:18:16;7.67;;;4.27;;
77955;SDS011;67152;36.266;32.294;2023-06-26T02:20:43;9.55;;;4.10;;
77955;SDS011;67152;36.266;32.294;2023-06-26T02:23:10;8.23;;;4.23;;
77955;SDS011;67152;36.266;32.294;2023-06-26T02:25:37;6.28;;;4.13;;
77955;SDS011;67152;36.266;32.294;2023-06-26T02:28:21;8.68;;;4.35;;
77955;SDS011;67152;36.266;32.294;2023-06-26T02:30:48;7.37;;;4.97;;
77955;SDS011;67152;36.266;32.294;2023-06-26T02:33:15;11.63;;;5.40;;
77955;SDS011;67152;36.266;32.294;2023-06-26T02:35:41;11.73;;;5.43;;
77955;SDS011;67152;36.266;32.294;2023-06-26T02:38:08;10.27;;;5.33;;
77955;SDS011;67152;36.266;32.294;2023-06-26T02:40:35;7.38;;;5.63;;
77955;SDS011;67152;36.266;32.294;2023-06-26T02:43:01;14.87;;;6.83;;
77955;SDS011;67152;36.266;32.294;2023-06-26T02:45:28;9.23;;;6.13;;
77955;SDS011;67152;36.266;32.294;2023-06-26T02:47:54;10.45;;;5.28;;
77955;SDS011;67152;36.266;32.294;2023-06-26T02:50:21;16.07;;;5.03;;
77955;SDS011;67152;36.266;32.294;2023-06-26T02:52:47;12.48;;;5.63;;
77955;SDS011;67152;36.266;32.294;2023-06-26T02:55:18;8.77;;;5.07;;
77955;SDS011;67152;36.266;32.294;2023-06-26T02:57:46;11.45;;;5.30;;
77955;SDS011;67152;36.266;32.294;2023-06-26T03:00:13;9.20;;;5.77;;
77955;SDS011;67152;36.266;32.294;2023-06-26T03:02:40;11.65;;;5.43;;
77955;SDS011;67152;36.266;32.294;2023-06-26T03:05:06;15.20;;;5.53;;
77955;SDS011;67152;36.266;32.294;2023-06-26T03:07:34;16.27;;;5.85;;
77955;SDS011;67152;36.266;32.294;2023-06-26T03:10:00;28.50;;;5.73;;
77955;SDS011;67152;36.266;32.294;2023-06-26T03:12:27;22.23;;;6.50;;
77955;SDS011;67152;36.266;32.294;2023-06-26T03:14:53;10.07;;;4.80;;
77955;SDS011;67152;36.266;32.294;2023-06-26T03:17:20;12.38;;;5.32;;
77955;SDS011;67152;36.266;32.294;2023-06-26T03:19:46;8.65;;;4.45;;
77955;SDS011;67152;36.266;32.294;2023-06-26T03:22:13;6.17;;;5.10;;
77955;SDS011;67152;36.266;32.294;2023-06-26T03:24:39;12.25;;;5.38;;
77955;SDS011;67152;36.266;32.294;2023-06-26T03:27:06;18.23;;;5.05;;
77955;SDS011;67152;36.266;32.294;2023-06-26T03:29:35;10.68;;;5.90;;
77955;SDS011;67152;36.266;32.294;2023-06-26T03:32:01;11.87;;;6.27;;
77955;SDS011;67152;36.266;32.294;2023-06-26T03:36:55;9.20;;;5.93;;
77955;SDS011;67152;36.266;32.294;2023-06-26T03:39:21;8.97;;;5.97;;
77955;SDS011;67152;36.266;32.294;2023-06-26T03:41:48;10.37;;;5.17;;
77955;SDS011;67152;36.266;32.294;2023-06-26T03:44:14;15.83;;;5.77;;
77955;SDS011;67152;36.266;32.294;2023-06-26T03:46:41;10.65;;;5.32;;
77955;SDS011;67152;36.266;32.294;2023-06-26T03:49:08;13.63;;;5.90;;
77955;SDS011;67152;36.266;32.294;2023-06-26T03:51:34;10.60;;;6.10;;
77955;SDS011;67152;36.266;32.294;2023-06-26T03:54:01;17.97;;;6.93;;
77955;SDS011;67152;36.266;32.294;2023-06-26T03:56:27;9.55;;;5.60;;
77955;SDS011;67152;36.266;32.294;2023-06-26T03:58:54;15.57;;;6.70;;
77955;SDS011;67152;36.266;32.294;2023-06-26T04:01:20;18.67;;;6.38;;
77955;SDS011;67152;36.266;32.294;2023-06-26T04:03:47;13.75;;;5.80;;
77955;SDS011;67152;36.266;32.294;2023-06-26T04:06:14;14.82;;;6.28;;
77955;SDS011;67152;36.266;32.294;2023-06-26T04:08:40;12.23;;;6.13;;
77955;SDS011;67152;36.266;32.294;2023-06-26T04:11:07;14.43;;;6.20;;
77955;SDS011;67152;36.266;32.294;2023-06-26T04:13:33;11.52;;;6.07;;
77955;SDS011;67152;36.266;32.294;2023-06-26T04:16:00;13.70;;;6.03;;
77955;SDS011;67152;36.266;32.294;2023-06-26T04:18:27;13.70;;;6.18;;
77955;SDS011;67152;36.266;32.294;2023-06-26T04:23:32;12.43;;;6.32;;
77955;SDS011;67152;36.266;32.294;2023-06-26T04:25:59;13.15;;;6.10;;
77955;SDS011;67152;36.266;32.294;2023-06-26T04:30:52;14.10;;;6.35;;
77955;SDS011;67152;36.266;32.294;2023-06-26T04:33:19;20.42;;;6.70;;
77955;SDS011;67152;36.266;32.294;2023-06-26T04:35:46;16.67;;;6.63;;
77955;SDS011;67152;36.266;32.294;2023-06-26T04:38:14;20.17;;;7.57;;
77955;SDS011;67152;36.266;32.294;2023-06-26T04:40:41;11.10;;;6.55;;
77955;SDS011;67152;36.266;32.294;2023-06-26T04:43:08;15.02;;;6.40;;
77955;SDS011;67152;36.266;32.294;2023-06-26T04:45:34;24.02;;;14.65;;
77955;SDS011;67152;36.266;32.294;2023-06-26T04:48:01;17.60;;;9.27;;
77955;SDS011;67152;36.266;32.294;2023-06-26T04:50:28;15.85;;;6.93;;
77955;SDS011;67152;36.266;32.294;2023-06-26T04:52:56;18.52;;;7.90;;
77955;SDS011;67152;36.266;32.294;2023-06-26T04:57:51;19.70;;;7.70;;
77955;SDS011;67152;36.266;32.294;2023-06-26T05:00:18;16.60;;;7.78;;
77955;SDS011;67152;36.266;32.294;2023-06-26T05:05:11;11.93;;;7.80;;
77955;SDS011;67152;36.266;32.294;2023-06-26T05:07:37;16.63;;;8.25;;
77955;SDS011;67152;36.266;32.294;2023-06-26T05:10:04;15.60;;;9.38;;
77955;SDS011;67152;36.266;32.294;2023-06-26T05:12:31;22.00;;;11.02;;
77955;SDS011;67152;36.266;32.294;2023-06-26T05:17:24;15.80;;;8.55;;
77955;SDS011;67152;36.266;32.294;2023-06-26T05:22:17;16.88;;;8.75;;
77955;SDS011;67152;36.266;32.294;2023-06-26T05:24:44;15.45;;;8.90;;
77955;SDS011;67152;36.266;32.294;2023-06-26T05:27:12;19.88;;;9.13;;
77955;SDS011;67152;36.266;32.294;2023-06-26T05:29:47;13.45;;;8.40;;
77955;SDS011;67152;36.266;32.294;2023-06-26T05:32:15;22.60;;;8.52;;
77955;SDS011;67152;36.266;32.294;2023-06-26T05:34:46;14.02;;;8.25;;
77955;SDS011;67152;36.266;32.294;2023-06-26T05:37:17;14.88;;;8.40;;
77955;SDS011;67152;36.266;32.294;2023-06-26T05:39:47;13.68;;;8.40;;
77955;SDS011;67152;36.266;32.294;2023-06-26T05:42:14;15.80;;;7.68;;
77955;SDS011;67152;36.266;32.294;2023-06-26T05:44:41;16.70;;;7.45;;
77955;SDS011;67152;36.266;32.294;2023-06-26T05:49:34;15.48;;;8.73;;
77955;SDS011;67152;36.266;32.294;2023-06-26T05:52:01;13.25;;;8.07;;
77955;SDS011;67152;36.266;32.294;2023-06-26T05:54:27;19.10;;;8.70;;
77955;SDS011;67152;36.266;32.294;2023-06-26T05:56:56;16.50;;;8.77;;
77955;SDS011;67152;36.266;32.294;2023-06-26T05:59:25;17.42;;;9.60;;
77955;SDS011;67152;36.266;32.294;2023-06-26T06:01:52;19.60;;;9.10;;
77955;SDS011;67152;36.266;32.294;2023-06-26T06:04:19;22.70;;;9.23;;
77955;SDS011;67152;36.266;32.294;2023-06-26T06:09:12;17.00;;;8.48;;
77955;SDS011;67152;36.266;32.294;2023-06-26T06:14:05;16.40;;;8.02;;
77955;SDS011;67152;36.266;32.294;2023-06-26T06:16:31;19.02;;;8.45;;
77955;SDS011;67152;36.266;32.294;2023-06-26T06:18:58;23.15;;;9.05;;
77955;SDS011;67152;36.266;32.294;2023-06-26T06:23:51;25.67;;;9.23;;
77955;SDS011;67152;36.266;32.294;2023-06-26T06:26:17;15.38;;;8.80;;
77955;SDS011;67152;36.266;32.294;2023-06-26T06:28:44;19.08;;;8.65;;
77955;SDS011;67152;36.266;32.294;2023-06-26T06:31:11;17.02;;;9.50;;
77955;SDS011;67152;36.266;32.294;2023-06-26T06:33:38;13.73;;;8.18;;
77955;SDS011;67152;36.266;32.294;2023-06-26T06:36:04;19.15;;;8.70;;
77955;SDS011;67152;36.266;32.294;2023-06-26T06:40:57;16.33;;;8.82;;
77955;SDS011;67152;36.266;32.294;2023-06-26T06:45:50;23.65;;;9.95;;
77955;SDS011;67152;36.266;32.294;2023-06-26T06:48:17;21.58;;;9.27;;
77955;SDS011;67152;36.266;32.294;2023-06-26T06:55:36;18.92;;;9.00;;
77955;SDS011;67152;36.266;32.294;2023-06-26T06:58:03;15.95;;;7.75;;
77955;SDS011;67152;36.266;32.294;2023-06-26T07:02:57;24.42;;;8.80;;
77955;SDS011;67152;36.266;32.294;2023-06-26T07:05:25;21.63;;;8.65;;
77955;SDS011;67152;36.266;32.294;2023-06-26T07:07:52;18.08;;;8.35;;
77955;SDS011;67152;36.266;32.294;2023-06-26T07:10:19;20.63;;;9.23;;
77955;SDS011;67152;36.266;32.294;2023-06-26T07:12:45;21.80;;;9.00;;
77955;SDS011;67152;36.266;32.294;2023-06-26T07:15:12;38.85;;;10.20;;
77955;SDS011;67152;36.266;32.294;2023-06-26T07:17:39;29.38;;;8.95;;
77955;SDS011;67152;36.266;32.294;2023-06-26T07:20:06;22.88;;;8.68;;
77955;SDS011;67152;36.266;32.294;2023-06-26T07:22:34;23.00;;;8.77;;
77955;SDS011;67152;36.266;32.294;2023-06-26T07:25:03;16.08;;;8.07;;
77955;SDS011;67152;36.266;32.294;2023-06-26T07:27:30;20.88;;;9.40;;
77955;SDS011;67152;36.266;32.294;2023-06-26T07:29:57;27.45;;;8.32;;
77955;SDS011;67152;36.266;32.294;2023-06-26T07:32:23;17.27;;;8.27;;
77955;SDS011;67152;36.266;32.294;2023-06-26T07:34:50;13.68;;;8.38;;
77955;SDS011;67152;36.266;32.294;2023-06-26T07:37:16;34.65;;;9.82;;
77955;SDS011;67152;36.266;32.294;2023-06-26T07:39:43;21.15;;;8.50;;
77955;SDS011;67152;36.266;32.294;2023-06-26T07:42:10;20.55;;;8.30;;
77955;SDS011;67152;36.266;32.294;2023-06-26T07:44:36;17.25;;;8.63;;
77955;SDS011;67152;36.266;32.294;2023-06-26T07:47:03;21.88;;;8.60;;
77955;SDS011;67152;36.266;32.294;2023-06-26T07:51:56;13.48;;;7.95;;
77955;SDS011;67152;36.266;32.294;2023-06-26T07:54:23;19.52;;;8.68;;
77955;SDS011;67152;36.266;32.294;2023-06-26T07:56:59;21.42;;;8.05;;
77955;SDS011;67152;36.266;32.294;2023-06-26T07:59:27;16.20;;;8.27;;
77955;SDS011;67152;36.266;32.294;2023-06-26T08:01:55;16.58;;;7.90;;
77955;SDS011;67152;36.266;32.294;2023-06-26T08:04:26;22.02;;;8.50;;
77955;SDS011;67152;36.266;32.294;2023-06-26T08:06:54;20.05;;;8.77;;
77955;SDS011;67152;36.266;32.294;2023-06-26T08:09:39;16.75;;;8.88;;
77955;SDS011;67152;36.266;32.294;2023-06-26T08:12:06;16.00;;;7.13;;
77955;SDS011;67152;36.266;32.294;2023-06-26T08:14:33;17.48;;;9.32;;
77955;SDS011;67152;36.266;32.294;2023-06-26T08:17:00;15.10;;;7.95;;
77955;SDS011;67152;36.266;32.294;2023-06-26T08:19:26;16.13;;;8.68;;
77955;SDS011;67152;36.266;32.294;2023-06-26T08:21:53;24.10;;;10.50;;
77955;SDS011;67152;36.266;32.294;2023-06-26T08:24:19;30.77;;;9.38;;
77955;SDS011;67152;36.266;32.294;2023-06-26T08:26:46;20.77;;;7.95;;
77955;SDS011;67152;36.266;32.294;2023-06-26T08:29:13;22.40;;;8.10;;
77955;SDS011;67152;36.266;32.294;2023-06-26T08:31:41;19.20;;;8.45;;
77955;SDS011;67152;36.266;32.294;2023-06-26T08:34:08;14.70;;;7.90;;
77955;SDS011;67152;36.266;32.294;2023-06-26T08:36:35;16.73;;;7.85;;
77955;SDS011;67152;36.266;32.294;2023-06-26T08:41:30;15.80;;;7.75;;
77955;SDS011;67152;36.266;32.294;2023-06-26T08:43:57;16.58;;;8.50;;
77955;SDS011;67152;36.266;32.294;2023-06-26T08:49:00;38.97;;;8.77;;
77955;SDS011;67152;36.266;32.294;2023-06-26T08:51:28;18.88;;;8.80;;
77955;SDS011;67152;36.266;32.294;2023-06-26T08:53:58;16.70;;;8.43;;
77955;SDS011;67152;36.266;32.294;2023-06-26T08:56:36;18.60;;;8.48;;
77955;SDS011;67152;36.266;32.294;2023-06-26T08:59:07;16.80;;;8.05;;
77955;SDS011;67152;36.266;32.294;2023-06-26T09:01:36;16.67;;;8.65;;
77955;SDS011;67152;36.266;32.294;2023-06-26T09:04:05;26.30;;;9.10;;
77955;SDS011;67152;36.266;32.294;2023-06-26T09:06:33;19.00;;;8.00;;
77955;SDS011;67152;36.266;32.294;2023-06-26T09:09:00;19.23;;;8.75;;
77955;SDS011;67152;36.266;32.294;2023-06-26T09:11:26;16.75;;;7.93;;
77955;SDS011;67152;36.266;32.294;2023-06-26T09:13:53;18.67;;;8.38;;
77955;SDS011;67152;36.266;32.294;2023-06-26T09:16:24;21.60;;;8.23;;
77955;SDS011;67152;36.266;32.294;2023-06-26T09:18:55;20.23;;;8.52;;
77955;SDS011;67152;36.266;32.294;2023-06-26T09:21:22;21.08;;;9.07;;
77955;SDS011;67152;36.266;32.294;2023-06-26T09:23:50;19.05;;;8.27;;
77955;SDS011;67152;36.266;32.294;2023-06-26T09:28:43;18.77;;;8.32;;
77955;SDS011;67152;36.266;32.294;2023-06-26T09:33:40;20.08;;;8.48;;
77955;SDS011;67152;36.266;32.294;2023-06-26T09:36:09;21.45;;;8.35;;
77955;SDS011;67152;36.266;32.294;2023-06-26T09:38:46;21.25;;;7.97;;
77955;SDS011;67152;36.266;32.294;2023-06-26T09:41:15;16.45;;;8.50;;
77955;SDS011;67152;36.266;32.294;2023-06-26T09:43:50;22.25;;;8.18;;
77955;SDS011;67152;36.266;32.294;2023-06-26T09:46:17;17.88;;;8.55;;
77955;SDS011;67152;36.266;32.294;2023-06-26T09:48:58;19.50;;;8.30;;
77955;SDS011;67152;36.266;32.294;2023-06-26T09:51:31;18.17;;;8.52;;
77955;SDS011;67152;36.266;32.294;2023-06-26T09:54:02;22.60;;;8.95;;
77955;SDS011;67152;36.266;32.294;2023-06-26T09:56:29;14.60;;;8.07;;
77955;SDS011;67152;36.266;32.294;2023-06-26T09:58:57;18.85;;;8.45;;
77955;SDS011;67152;36.266;32.294;2023-06-26T10:01:26;21.88;;;8.80;;
77955;SDS011;67152;36.266;32.294;2023-06-26T10:03:54;14.27;;;7.38;;
77955;SDS011;67152;36.266;32.294;2023-06-26T10:06:33;19.52;;;7.18;;
77955;SDS011;67152;36.266;32.294;2023-06-26T10:09:02;23.65;;;8.80;;
77955;SDS011;67152;36.266;32.294;2023-06-26T10:11:33;18.15;;;8.90;;
77955;SDS011;67152;36.266;32.294;2023-06-26T10:14:13;14.70;;;7.65;;
77955;SDS011;67152;36.266;32.294;2023-06-26T10:16:40;19.02;;;9.15;;
77955;SDS011;67152;36.266;32.294;2023-06-26T10:19:08;18.55;;;8.73;;
77955;SDS011;67152;36.266;32.294;2023-06-26T10:21:37;33.08;;;9.20;;
77955;SDS011;67152;36.266;32.294;2023-06-26T10:24:05;21.88;;;8.70;;
77955;SDS011;67152;36.266;32.294;2023-06-26T10:26:33;20.77;;;9.18;;
77955;SDS011;67152;36.266;32.294;2023-06-26T10:29:02;19.77;;;9.32;;
77955;SDS011;67152;36.266;32.294;2023-06-26T10:31:29;21.17;;;9.32;;
77955;SDS011;67152;36.266;32.294;2023-06-26T10:33:56;21.55;;;10.20;;
77955;SDS011;67152;36.266;32.294;2023-06-26T10:36:30;19.88;;;9.50;;
77955;SDS011;67152;36.266;32.294;2023-06-26T10:38:58;17.58;;;10.10;;
77955;SDS011;67152;36.266;32.294;2023-06-26T10:41:28;26.85;;;11.07;;
77955;SDS011;67152;36.266;32.294;2023-06-26T10:44:09;28.90;;;11.20;;
77955;SDS011;67152;36.266;32.294;2023-06-26T10:49:24;21.80;;;10.82;;
77955;SDS011;67152;36.266;32.294;2023-06-26T10:51:52;17.17;;;10.55;;
77955;SDS011;67152;36.266;32.294;2023-06-26T10:54:20;20.48;;;10.35;;
77955;SDS011;67152;36.266;32.294;2023-06-26T10:56:51;24.88;;;11.50;;
77955;SDS011;67152;36.266;32.294;2023-06-26T11:07:17;27.15;;;10.68;;
77955;SDS011;67152;36.266;32.294;2023-06-26T11:10:01;23.30;;;10.43;;
77955;SDS011;67152;36.266;32.294;2023-06-26T11:15:20;24.83;;;11.87;;
77955;SDS011;67152;36.266;32.294;2023-06-26T11:17:47;19.73;;;10.90;;
77955;SDS011;67152;36.266;32.294;2023-06-26T11:20:14;22.55;;;10.82;;
77955;SDS011;67152;36.266;32.294;2023-06-26T11:22:44;22.33;;;10.18;;
77955;SDS011;67152;36.266;32.294;2023-06-26T11:25:10;20.05;;;10.73;;
77955;SDS011;67152;36.266;32.294;2023-06-26T11:27:40;20.13;;;10.85;;
77955;SDS011;67152;36.266;32.294;2023-06-26T11:30:09;18.58;;;10.20;;
77955;SDS011;67152;36.266;32.294;2023-06-26T11:32:37;25.65;;;12.18;;
77955;SDS011;67152;36.266;32.294;2023-06-26T11:35:05;18.85;;;11.05;;
77955;SDS011;67152;36.266;32.294;2023-06-26T11:37:32;28.08;;;10.70;;
77955;SDS011;67152;36.266;32.294;2023-06-26T11:39:59;20.17;;;11.23;;
77955;SDS011;67152;36.266;32.294;2023-06-26T11:42:46;24.30;;;10.50;;
77955;SDS011;67152;36.266;32.294;2023-06-26T11:45:13;24.83;;;10.70;;
77955;SDS011;67152;36.266;32.294;2023-06-26T11:47:40;21.15;;;10.52;;
77955;SDS011;67152;36.266;32.294;2023-06-26T11:50:06;20.80;;;10.93;;
77955;SDS011;67152;36.266;32.294;2023-06-26T11:52:42;24.48;;;11.40;;
77955;SDS011;67152;36.266;32.294;2023-06-26T11:55:09;21.38;;;11.85;;
77955;SDS011;67152;36.266;32.294;2023-06-26T11:57:39;23.02;;;10.45;;
77955;SDS011;67152;36.266;32.294;2023-06-26T12:00:12;22.33;;;11.05;;
77955;SDS011;67152;36.266;32.294;2023-06-26T12:02:43;24.00;;;11.65;;
77955;SDS011;67152;36.266;32.294;2023-06-26T12:05:12;17.05;;;9.73;;
77955;SDS011;67152;36.266;32.294;2023-06-26T12:07:41;21.08;;;13.23;;
77955;SDS011;67152;36.266;32.294;2023-06-26T12:10:12;25.20;;;12.55;;
77955;SDS011;67152;36.266;32.294;2023-06-26T12:12:41;18.65;;;10.88;;
77955;SDS011;67152;36.266;32.294;2023-06-26T12:15:07;18.38;;;9.80;;
77955;SDS011;67152;36.266;32.294;2023-06-26T12:17:37;21.05;;;10.20;;
77955;SDS011;67152;36.266;32.294;2023-06-26T12:20:27;24.77;;;10.80;;
77955;SDS011;67152;36.266;32.294;2023-06-26T12:22:56;24.00;;;10.93;;
77955;SDS011;67152;36.266;32.294;2023-06-26T12:25:23;25.85;;;12.07;;
77955;SDS011;67152;36.266;32.294;2023-06-26T12:27:50;18.75;;;9.43;;
77955;SDS011;67152;36.266;32.294;2023-06-26T12:30:16;17.80;;;10.52;;
77955;SDS011;67152;36.266;32.294;2023-06-26T12:32:46;29.13;;;12.35;;
77955;SDS011;67152;36.266;32.294;2023-06-26T12:35:13;19.10;;;10.45;;
77955;SDS011;67152;36.266;32.294;2023-06-26T12:37:41;24.65;;;11.43;;
77955;SDS011;67152;36.266;32.294;2023-06-26T12:40:17;19.60;;;9.40;;
77955;SDS011;67152;36.266;32.294;2023-06-26T12:42:45;20.55;;;9.05;;
77955;SDS011;67152;36.266;32.294;2023-06-26T12:45:12;19.02;;;9.60;;
77955;SDS011;67152;36.266;32.294;2023-06-26T12:47:39;19.45;;;8.55;;
77955;SDS011;67152;36.266;32.294;2023-06-26T12:50:07;18.52;;;9.02;;
77955;SDS011;67152;36.266;32.294;2023-06-26T12:52:34;17.98;;;9.98;;
77955;SDS011;67152;36.266;32.294;2023-06-26T12:55:01;22.27;;;9.32;;
77955;SDS011;67152;36.266;32.294;2023-06-26T12:57:27;15.50;;;8.73;;
77955;SDS011;67152;36.266;32.294;2023-06-26T12:59:54;15.65;;;9.27;;
77955;SDS011;67152;36.266;32.294;2023-06-26T13:02:21;26.42;;;9.65;;
77955;SDS011;67152;36.266;32.294;2023-06-26T13:04:47;22.30;;;8.02;;
77955;SDS011;67152;36.266;32.294;2023-06-26T13:07:15;17.98;;;9.05;;
77955;SDS011;67152;36.266;32.294;2023-06-26T13:09:42;18.98;;;8.52;;
77955;SDS011;67152;36.266;32.294;2023-06-26T13:12:09;17.08;;;8.60;;
77955;SDS011;67152;36.266;32.294;2023-06-26T13:14:36;25.00;;;8.55;;
77955;SDS011;67152;36.266;32.294;2023-06-26T13:17:04;17.50;;;7.65;;
77955;SDS011;67152;36.266;32.294;2023-06-26T13:21:57;20.60;;;9.13;;
77955;SDS011;67152;36.266;32.294;2023-06-26T13:24:24;21.00;;;8.25;;
77955;SDS011;67152;36.266;32.294;2023-06-26T13:26:50;20.52;;;9.27;;
77955;SDS011;67152;36.266;32.294;2023-06-26T13:31:43;15.50;;;9.15;;
77955;SDS011;67152;36.266;32.294;2023-06-26T13:34:19;17.88;;;8.73;;
77955;SDS011;67152;36.266;32.294;2023-06-26T13:36:53;20.00;;;9.88;;
77955;SDS011;67152;36.266;32.294;2023-06-26T13:39:20;19.67;;;9.02;;
77955;SDS011;67152;36.266;32.294;2023-06-26T13:44:13;17.17;;;8.18;;
77955;SDS011;67152;36.266;32.294;2023-06-26T13:46:40;19.20;;;8.40;;
77955;SDS011;67152;36.266;32.294;2023-06-26T13:49:06;24.50;;;8.73;;
77955;SDS011;67152;36.266;32.294;2023-06-26T13:51:33;21.33;;;8.52;;
77955;SDS011;67152;36.266;32.294;2023-06-26T13:54:00;25.27;;;9.20;;
77955;SDS011;67152;36.266;32.294;2023-06-26T13:56:26;20.77;;;9.18;;
77955;SDS011;67152;36.266;32.294;2023-06-26T13:59:12;19.48;;;8.43;;
77955;SDS011;67152;36.266;32.294;2023-06-26T14:01:39;16.85;;;8.82;;
77955;SDS011;67152;36.266;32.294;2023-06-26T14:04:08;19.52;;;9.10;;
77955;SDS011;67152;36.266;32.294;2023-06-26T14:06:35;20.02;;;9.07;;
77955;SDS011;67152;36.266;32.294;2023-06-26T14:09:01;18.35;;;8.68;;
77955;SDS011;67152;36.266;32.294;2023-06-26T14:11:29;19.73;;;9.25;;
77955;SDS011;67152;36.266;32.294;2023-06-26T14:13:58;18.95;;;9.10;;
77955;SDS011;67152;36.266;32.294;2023-06-26T14:16:24;20.00;;;9.38;;
77955;SDS011;67152;36.266;32.294;2023-06-26T14:21:18;19.48;;;8.73;;
77955;SDS011;67152;36.266;32.294;2023-06-26T14:23:44;19.00;;;9.07;;
77955;SDS011;67152;36.266;32.294;2023-06-26T14:26:11;18.58;;;9.63;;
77955;SDS011;67152;36.266;32.294;2023-06-26T14:28:38;18.33;;;9.20;;
77955;SDS011;67152;36.266;32.294;2023-06-26T14:31:05;16.17;;;9.00;;
77955;SDS011;67152;36.266;32.294;2023-06-26T14:33:31;27.33;;;9.32;;
77955;SDS011;67152;36.266;32.294;2023-06-26T14:35:58;20.42;;;8.75;;
77955;SDS011;67152;36.266;32.294;2023-06-26T14:38:26;16.70;;;8.20;;
77955;SDS011;67152;36.266;32.294;2023-06-26T14:40:53;21.67;;;9.30;;
77955;SDS011;67152;36.266;32.294;2023-06-26T14:43:19;15.95;;;9.27;;
77955;SDS011;67152;36.266;32.294;2023-06-26T14:45:46;21.85;;;9.25;;
77955;SDS011;67152;36.266;32.294;2023-06-26T14:48:13;21.65;;;10.00;;
77955;SDS011;67152;36.266;32.294;2023-06-26T14:50:40;21.90;;;9.55;;
77955;SDS011;67152;36.266;32.294;2023-06-26T14:53:06;25.10;;;9.32;;
77955;SDS011;67152;36.266;32.294;2023-06-26T14:55:33;18.35;;;9.43;;
77955;SDS011;67152;36.266;32.294;2023-06-26T14:57:59;20.45;;;9.80;;
77955;SDS011;67152;36.266;32.294;2023-06-26T15:00:26;17.70;;;9.80;;
77955;SDS011;67152;36.266;32.294;2023-06-26T15:05:39;21.15;;;10.95;;
77955;SDS011;67152;36.266;32.294;2023-06-26T15:08:05;16.33;;;9.93;;
77955;SDS011;67152;36.266;32.294;2023-06-26T15:10:32;22.73;;;10.35;;
77955;SDS011;67152;36.266;32.294;2023-06-26T15:12:59;25.08;;;10.27;;
77955;SDS011;67152;36.266;32.294;2023-06-26T15:15:25;16.00;;;9.35;;
77955;SDS011;67152;36.266;32.294;2023-06-26T15:17:52;20.40;;;10.00;;
77955;SDS011;67152;36.266;32.294;2023-06-26T15:20:18;23.35;;;10.88;;
77955;SDS011;67152;36.266;32.294;2023-06-26T15:22:45;25.42;;;10.57;;
77955;SDS011;67152;36.266;32.294;2023-06-26T15:25:12;19.27;;;9.70;;
77955;SDS011;67152;36.266;32.294;2023-06-26T15:27:38;27.50;;;10.85;;
77955;SDS011;67152;36.266;32.294;2023-06-26T15:30:05;28.23;;;10.85;;
77955;SDS011;67152;36.266;32.294;2023-06-26T15:32:32;22.35;;;10.02;;
77955;SDS011;67152;36.266;32.294;2023-06-26T15:34:58;26.63;;;10.63;;
77955;SDS011;67152;36.266;32.294;2023-06-26T15:37:25;24.63;;;11.88;;
77955;SDS011;67152;36.266;32.294;2023-06-26T15:39:52;23.20;;;11.07;;
77955;SDS011;67152;36.266;32.294;2023-06-26T15:42:19;28.08;;;10.35;;
77955;SDS011;67152;36.266;32.294;2023-06-26T15:44:45;21.98;;;9.55;;
77955;SDS011;67152;36.266;32.294;2023-06-26T15:47:12;22.00;;;9.27;;
77955;SDS011;67152;36.266;32.294;2023-06-26T15:49:38;27.58;;;10.32;;